Summerwind — WDF3461 — position and weather

sailwx.info

Track history (hours):
 
Tides and Currents Weather Stations Pressure Air Temp Water Temp Dewpoint Dewpoint Depression Visibility Wind Speed Wind Dir Waves Ship Positions

Summerwind (United States)

Ship's website: http://www.usmma.edu/waterfront

Owner: US Merchant Marine Academy, Kings Point, NY. More information available from US FCC via Universal Licensing System and Coast Guard Vessel Documentation Center.

Last reported at 2015-May-21 09:29 UTC. Time now 2015-May-28 12:07 UTC.
Position N 41°38' W 071°18'.

Length 30 m.

Type: Sailing vessel. MMSI: 367440150.

Date/timePositionNaut miles runAvg speedWind from/ knotsBaromVisibWave heightAir tempDewpointWater temp
2015-May-21 09:29N 41°38' W 071°18'11 5.1
2015-May-21 07:16N 41°28' W 071°22'3 3.9
2015-May-21 06:32N 41°25' W 071°24'7 7.4
2015-May-21 05:33N 41°20' W 071°30'8 7.6
2015-May-21 04:33N 41°14' W 071°37'9 8.7
2015-May-21 03:33N 41°07' W 071°44'10 9.7
2015-May-21 02:33N 41°00' W 071°53'7 7.1
2015-May-21 01:34N 40°56' W 072°00'7 7.1
2015-May-21 00:33N 40°51' W 072°07'9 8.6
2015-May-20 23:33N 40°45' W 072°16'167 7.4
2015-May-20 01:03N 38°57' W 075°01'21 5.8
2015-May-19 21:25N 39°13' W 075°17'8 9.1
2015-May-19 20:34N 39°19' W 075°24'9 8.8
2015-May-19 19:33N 39°26' W 075°31'8 7.5
2015-May-19 18:33N 39°33' W 075°33'6 5.6
2015-May-19 17:33N 39°33' W 075°40'7 6.7
2015-May-19 16:33N 39°32' W 075°49'7 7.0
2015-May-19 15:32N 39°29' W 075°57'  
Track history (hours):
 
Tides and Currents Weather Stations Pressure Air Temp Water Temp Dewpoint Dewpoint Depression Visibility Wind Speed Wind Dir Waves Ship Positions

Summerwind (United States)

Ship's website: http://www.usmma.edu/waterfront

Owner: US Merchant Marine Academy, Kings Point, NY. More information available from US FCC via Universal Licensing System and Coast Guard Vessel Documentation Center.

Last reported at 2015-May-21 09:29 UTC. Time now 2015-May-28 12:07 UTC.
Position N 41°38' W 071°18'.

Length 30 m.

Type: Sailing vessel. MMSI: 367440150.

Date/timePositionNaut miles runAvg speedWind from/ knotsBaromVisibWave heightAir tempDewpointWater temp
2015-May-21 09:29N 41°38' W 071°18'11 5.1
2015-May-21 07:16N 41°28' W 071°22'3 3.9
2015-May-21 06:32N 41°25' W 071°24'7 7.4
2015-May-21 05:33N 41°20' W 071°30'8 7.6
2015-May-21 04:33N 41°14' W 071°37'9 8.7
2015-May-21 03:33N 41°07' W 071°44'10 9.7
2015-May-21 02:33N 41°00' W 071°53'7 7.1
2015-May-21 01:34N 40°56' W 072°00'7 7.1
2015-May-21 00:33N 40°51' W 072°07'9 8.6
2015-May-20 23:33N 40°45' W 072°16'167 7.4
2015-May-20 01:03N 38°57' W 075°01'21 5.8
2015-May-19 21:25N 39°13' W 075°17'8 9.1
2015-May-19 20:34N 39°19' W 075°24'9 8.8
2015-May-19 19:33N 39°26' W 075°31'8 7.5
2015-May-19 18:33N 39°33' W 075°33'6 5.6
2015-May-19 17:33N 39°33' W 075°40'7 6.7
2015-May-19 16:33N 39°32' W 075°49'7 7.0
2015-May-19 15:32N 39°29' W 075°57'  

Dump ship's entire track history